Time,TemperatureF,DewpointF,PressureIn,WindDirection,WindDirectionDegrees,WindSpeedMPH,WindSpeedGustMPH,Humidity,HourlyPrecipIn,Conditions,Clouds,dailyrainin,SoftwareType,DateUTC
2013-10-16 00:14:00,61.0,60.0,29.80,West,273,4.0,10.0,97,0.00,,,0.28,,2013-10-16 04:14:00,
2013-10-16 00:24:00,61.0,60.0,29.79,WNW,293,3.0,10.0,97,0.00,,,0.28,,2013-10-16 04:24:00,
2013-10-16 00:43:00,61.0,60.0,29.79,West,273,3.0,13.0,97,0.00,,,0.28,,2013-10-16 04:43:00,
2013-10-16 00:54:00,61.0,59.0,29.80,NW,307,7.0,19.0,93,0.00,,,0.28,,2013-10-16 04:54:00,
2013-10-16 01:13:00,59.0,55.0,29.81,WNW,298,7.0,18.0,88,0.00,,,0.28,,2013-10-16 05:13:00,
2013-10-16 01:22:00,58.0,55.0,29.81,West,274,5.0,12.0,90,0.00,,,0.28,,2013-10-16 05:22:00,
2013-10-16 01:43:00,57.0,54.0,29.81,WNW,285,4.0,10.0,89,0.00,,,0.28,,2013-10-16 05:43:00,
2013-10-16 01:53:00,57.0,54.0,29.81,West,278,4.0,9.0,90,0.00,,,0.28,,2013-10-16 05:53:00,
2013-10-16 02:12:00,57.0,54.0,29.82,West,259,4.0,7.0,89,0.00,,,0.28,,2013-10-16 06:12:00,
2013-10-16 02:22:00,56.0,52.0,29.82,WNW,283,4.0,8.0,87,0.00,,,0.28,,2013-10-16 06:22:00,
2013-10-16 02:43:00,56.0,52.0,29.82,WNW,285,2.0,5.0,86,0.00,,,0.28,,2013-10-16 06:43:00,
2013-10-16 02:52:00,55.0,51.0,29.82,WNW,299,2.0,5.0,87,0.00,,,0.28,,2013-10-16 06:52:00,
2013-10-16 03:12:00,55.0,51.0,29.83,WNW,285,4.0,8.0,86,0.00,,,0.28,,2013-10-16 07:12:00,
2013-10-16 03:22:00,54.0,50.0,29.83,WSW,253,2.0,5.0,85,0.00,,,0.28,,2013-10-16 07:22:00,
2013-10-16 03:42:00,54.0,50.0,29.82,WSW,256,2.0,5.0,86,0.00,,,0.28,,2013-10-16 07:42:00,
2013-10-16 03:53:00,54.0,50.0,29.82,WNW,301,2.0,6.0,85,0.00,,,0.28,,2013-10-16 07:53:00,
2013-10-16 04:11:00,54.0,50.0,29.82,West,278,3.0,6.0,85,0.00,,,0.28,,2013-10-16 08:11:00,
2013-10-16 04:22:00,53.0,49.0,29.81,SW,228,1.0,6.0,86,0.00,,,0.28,,2013-10-16 08:22:00,
2013-10-16 04:42:00,52.0,48.0,29.81,WSW,246,1.0,4.0,87,0.00,,,0.28,,2013-10-16 08:42:00,
2013-10-16 04:52:00,51.0,48.0,29.81,WSW,249,1.0,3.0,89,0.00,,,0.28,,2013-10-16 08:52:00,
2013-10-16 05:11:00,50.0,47.0,29.81,SW,224,1.0,3.0,90,0.00,,,0.28,,2013-10-16 09:11:00,
2013-10-16 05:22:00,50.0,47.0,29.81,WSW,256,1.0,5.0,91,0.00,,,0.28,,2013-10-16 09:22:00,
2013-10-16 05:43:00,50.0,47.0,29.80,WSW,257,2.0,4.0,91,0.00,,,0.28,,2013-10-16 09:43:00,
2013-10-16 05:54:00,50.0,47.0,29.80,SW,230,1.0,4.0,90,0.00,,,0.28,,2013-10-16 09:54:00,
2013-10-16 06:13:00,49.0,46.0,29.81,WSW,257,1.0,3.0,91,0.00,,,0.28,,2013-10-16 10:13:00,
2013-10-16 06:23:00,49.0,46.0,29.81,WSW,252,3.0,8.0,91,0.00,,,0.28,,2013-10-16 10:23:00,
2013-10-16 06:42:00,49.0,47.0,29.81,WSW,248,1.0,4.0,92,0.00,,,0.28,,2013-10-16 10:42:00,
2013-10-16 06:53:00,49.0,47.0,29.81,SW,228,1.0,6.0,92,0.00,,,0.28,,2013-10-16 10:53:00,
2013-10-16 07:12:00,49.0,47.0,29.81,SW,219,1.0,5.0,92,0.00,,,0.28,,2013-10-16 11:12:00,
2013-10-16 07:22:00,49.0,47.0,29.81,South,186,2.0,5.0,92,0.00,,,0.28,,2013-10-16 11:22:00,
2013-10-16 07:42:00,49.0,46.0,29.81,SSE,155,1.0,4.0,91,0.00,,,0.28,,2013-10-16 11:42:00,
2013-10-16 07:52:00,49.0,47.0,29.81,WNW,286,1.0,5.0,92,0.00,,,0.28,,2013-10-16 11:52:00,
2013-10-16 08:12:00,49.0,47.0,29.81,WSW,252,2.0,3.0,92,0.00,,,0.28,,2013-10-16 12:12:00,
2013-10-16 08:22:00,49.0,47.0,29.82,WSW,242,1.0,4.0,92,0.00,,,0.28,,2013-10-16 12:22:00,
2013-10-16 08:42:00,49.0,47.0,29.81,SSW,205,1.0,6.0,92,0.00,,,0.28,,2013-10-16 12:42:00,
2013-10-16 08:52:00,50.0,47.0,29.82,WSW,249,2.0,5.0,91,0.00,,,0.28,,2013-10-16 12:52:00,
2013-10-16 09:12:00,50.0,47.0,29.83,West,259,2.0,9.0,90,0.00,,,0.28,,2013-10-16 13:12:00,
2013-10-16 09:22:00,50.0,47.0,29.83,SSE,164,2.0,4.0,91,0.00,,,0.28,,2013-10-16 13:22:00,
2013-10-16 09:42:00,49.0,47.0,29.83,SW,228,1.0,5.0,92,0.00,,,0.28,,2013-10-16 13:42:00,
2013-10-16 09:52:00,49.0,47.0,29.83,South,176,2.0,5.0,93,0.00,,,0.28,,2013-10-16 13:52:00,
2013-10-16 10:11:00,49.0,47.0,29.83,South,169,2.0,9.0,93,0.00,,,0.28,,2013-10-16 14:11:00,
2013-10-16 10:22:00,49.0,47.0,29.83,SE,143,3.0,8.0,92,0.00,,,0.28,,2013-10-16 14:22:00,
2013-10-16 10:42:00,49.0,47.0,29.83,SSW,200,2.0,9.0,92,0.00,,,0.28,,2013-10-16 14:42:00,
2013-10-16 10:52:00,49.0,46.0,29.83,NW,311,4.0,9.0,91,0.00,,,0.28,,2013-10-16 14:52:00,
2013-10-16 11:11:00,49.0,46.0,29.83,NNW,347,3.0,9.0,91,0.00,,,0.28,,2013-10-16 15:11:00,
2013-10-16 11:22:00,49.0,46.0,29.83,SW,225,4.0,10.0,90,0.00,,,0.28,,2013-10-16 15:22:00,
2013-10-16 11:43:00,49.0,46.0,29.83,East,101,3.0,10.0,90,0.00,,,0.28,,2013-10-16 15:43:00,
2013-10-16 11:53:00,49.0,46.0,29.84,West,259,5.0,9.0,90,0.00,,,0.28,,2013-10-16 15:53:00,
2013-10-16 12:13:00,49.0,46.0,29.84,SSE,165,4.0,9.0,90,0.00,,,0.28,,2013-10-16 16:13:00,
2013-10-16 12:23:00,49.0,46.0,29.85,SSW,200,3.0,11.0,90,0.00,,,0.28,,2013-10-16 16:23:00,
2013-10-16 12:42:00,49.0,46.0,29.85,SSW,210,4.0,8.0,90,0.00,,,0.28,,2013-10-16 16:42:00,
2013-10-16 12:53:00,49.0,46.0,29.85,SW,221,5.0,10.0,90,0.00,,,0.28,,2013-10-16 16:53:00,
2013-10-16 13:12:00,49.0,46.0,29.85,SE,146,3.0,8.0,91,0.00,,,0.28,,2013-10-16 17:12:00,
2013-10-16 13:22:00,48.0,46.0,29.85,SSW,197,3.0,9.0,92,0.00,,,0.28,,2013-10-16 17:22:00,
2013-10-16 13:43:00,48.0,46.0,29.85,SW,222,3.0,12.0,94,0.00,,,0.28,,2013-10-16 17:43:00,
2013-10-16 13:52:00,48.0,47.0,29.85,ESE,105,2.0,7.0,96,0.01,,,0.29,,2013-10-16 17:52:00,
2013-10-16 14:11:00,48.0,47.0,29.85,WNW,303,6.0,10.0,96,0.01,,,0.29,,2013-10-16 18:11:00,
2013-10-16 14:22:00,49.0,48.0,29.85,SSW,200,4.0,11.0,97,0.02,,,0.30,,2013-10-16 18:22:00,
2013-10-16 14:42:00,49.0,48.0,29.85,South,174,2.0,8.0,97,0.03,,,0.31,,2013-10-16 18:42:00,
2013-10-16 14:52:00,49.0,48.0,29.84,SW,217,5.0,9.0,97,0.03,,,0.32,,2013-10-16 18:52:00,
2013-10-16 15:11:00,49.0,48.0,29.84,WSW,248,3.0,7.0,97,0.03,,,0.33,,2013-10-16 19:11:00,
2013-10-16 15:22:00,49.0,48.0,29.84,WSW,256,1.0,5.0,97,0.04,,,0.34,,2013-10-16 19:22:00,
2013-10-16 15:42:00,49.0,48.0,29.84,East,85,3.0,9.0,98,0.03,,,0.34,,2013-10-16 19:42:00,
2013-10-16 15:52:00,50.0,49.0,29.84,SSE,147,3.0,7.0,98,0.03,,,0.35,,2013-10-16 19:52:00,
2013-10-16 16:12:00,50.0,49.0,29.84,SW,217,4.0,7.0,98,0.02,,,0.35,,2013-10-16 20:12:00,
2013-10-16 16:22:00,50.0,49.0,29.84,SSE,148,2.0,7.0,98,0.01,,,0.35,,2013-10-16 20:22:00,
2013-10-16 16:43:00,50.0,49.0,29.84,SSE,148,3.0,8.0,98,0.01,,,0.35,,2013-10-16 20:43:00,
2013-10-16 16:52:00,50.0,49.0,29.84,SSE,165,3.0,7.0,98,0.00,,,0.35,,2013-10-16 20:52:00,
2013-10-16 17:11:00,50.0,49.0,29.84,SW,226,3.0,6.0,98,0.01,,,0.36,,2013-10-16 21:11:00,
2013-10-16 17:23:00,50.0,49.0,29.85,SSE,150,1.0,4.0,98,0.02,,,0.36,,2013-10-16 21:23:00,
2013-10-16 17:44:00,50.0,49.0,29.84,SE,126,1.0,6.0,98,0.02,,,0.36,,2013-10-16 21:44:00,
2013-10-16 17:54:00,50.0,49.0,29.85,SSE,150,1.0,4.0,98,0.02,,,0.36,,2013-10-16 21:54:00,
2013-10-16 18:14:00,50.0,49.0,29.85,WSW,249,2.0,6.0,98,0.01,,,0.36,,2013-10-16 22:14:00,
2013-10-16 18:24:00,50.0,49.0,29.85,SSW,201,1.0,6.0,98,0.00,,,0.34,,2013-10-16 22:24:00,
2013-10-16 18:42:00,50.0,49.0,29.85,SW,225,1.0,3.0,98,0.00,,,0.34,,2013-10-16 22:42:00,
2013-10-16 18:54:00,50.0,49.0,29.85,SSW,193,0.0,4.0,98,0.00,,,0.34,,2013-10-16 22:54:00,
2013-10-16 19:12:00,50.0,49.0,29.85,West,280,0.0,4.0,98,0.01,,,0.35,,2013-10-16 23:12:00,
2013-10-16 19:22:00,50.0,49.0,29.85,SE,135,1.0,4.0,98,0.02,,,0.20,,2013-10-16 23:22:00,
2013-10-16 19:42:00,50.0,49.0,29.85,WSW,252,1.0,5.0,98,0.02,,,0.20,,2013-10-16 23:42:00,
2013-10-16 19:53:00,50.0,49.0,29.86,SW,218,3.0,8.0,98,0.02,,,0.20,,2013-10-16 23:53:00,
2013-10-16 20:12:00,50.0,49.0,29.86,SW,221,3.0,7.0,98,0.01,,,0.20,,2013-10-17 00:12:00,
2013-10-16 20:22:00,50.0,49.0,29.87,West,271,2.0,8.0,98,0.00,,,0.15,,2013-10-17 00:22:00,
2013-10-16 20:42:00,50.0,49.0,29.87,SW,223,2.0,7.0,98,0.00,,,0.15,,2013-10-17 00:42:00,
2013-10-16 20:52:00,50.0,49.0,29.87,SE,134,2.0,8.0,98,0.00,,,0.15,,2013-10-17 00:52:00,
2013-10-16 21:12:00,50.0,49.0,29.87,SSW,193,3.0,5.0,98,0.00,,,0.15,,2013-10-17 01:12:00,
2013-10-16 21:22:00,50.0,49.0,29.88,WSW,240,2.0,8.0,98,0.00,,,0.11,,2013-10-17 01:22:00,
2013-10-16 21:42:00,50.0,49.0,29.88,West,278,3.0,6.0,98,0.00,,,0.11,,2013-10-17 01:42:00,
2013-10-16 21:52:00,50.0,49.0,29.88,West,266,4.0,8.0,98,0.00,,,0.11,,2013-10-17 01:52:00,
2013-10-16 22:12:00,50.0,49.0,29.88,SW,225,1.0,4.0,98,0.00,,,0.11,,2013-10-17 02:12:00,
2013-10-16 22:22:00,49.0,48.0,29.89,SW,232,2.0,7.0,98,0.00,,,0.11,,2013-10-17 02:22:00,
2013-10-16 23:12:00,49.0,48.0,29.89,SSW,210,1.0,6.0,98,0.00,,,0.11,,2013-10-17 03:12:00,
2013-10-16 23:22:00,49.0,48.0,29.89,SSE,154,1.0,5.0,98,0.00,,,0.11,,2013-10-17 03:22:00,
2013-10-16 23:44:00,49.0,48.0,29.88,SSE,158,2.0,5.0,98,0.00,,,0.11,,2013-10-17 03:44:00,
2013-10-16 23:54:00,49.0,48.0,29.88,SSE,160,2.0,6.0,98,0.00,,,0.11,,2013-10-17 03:54:00,